This is the latest recevied weather packets stored in our database for station/object KO4LCK. If no packets are shown the sender has not sent any weather packets the latest 1 day(s).
| Time | Temp. | Humidity | Pressure | Rain* | Wind** | Luminosity | Snow |
|---|---|---|---|---|---|---|---|
| 1778017571 | 25° C | 39% | 1013.3 hPa | 0 mm | 0.89 m/s, 211° | 81 W/m² | - |
| 1778017267 | 25.56° C | 38% | 1013.4 hPa | 0 mm | 0.89 m/s, 210° | 87 W/m² | - |
| 1778016965 | 25.56° C | 38% | 1013.4 hPa | 0 mm | 0 m/s | 91 W/m² | - |
| 1778016662 | 25.56° C | 39% | 1013.5 hPa | 0 mm | 0 m/s | 93 W/m² | - |
| 1778016357 | 25.56° C | 37% | 1013.4 hPa | 0 mm | 0.45 m/s, 256° | 100 W/m² | - |
| 1778016065 | 25.56° C | 37% | 1013.2 hPa | 0 mm | 0.45 m/s, 238° | 124 W/m² | - |
| 1778015752 | 25.56° C | 36% | 1013.3 hPa | 0 mm | 1.34 m/s, 193° | 231 W/m² | - |
| 1778015449 | 25.56° C | 36% | 1013.2 hPa | 0 mm | 0 m/s | 187 W/m² | - |
| 1778015145 | 25.56° C | 36% | 1013.4 hPa | 0 mm | 0.89 m/s, 214° | 144 W/m² | - |
| 1778014843 | 26.11° C | 35% | 1013.3 hPa | 0 mm | 1.34 m/s, 240° | 186 W/m² | - |
| 1778014541 | 26.11° C | 35% | 1013.5 hPa | 0 mm | 0.89 m/s, 193° | 207 W/m² | - |
| 1778014238 | 26.67° C | 34% | 1013.6 hPa | 0 mm | 2.24 m/s, 206° | 196 W/m² | - |
| 1778013935 | 26.67° C | 35% | 1013.5 hPa | 0 mm | 0.89 m/s, 293° | 174 W/m² | - |
| 1778013632 | 27.22° C | 33% | 1013.3 hPa | 0 mm | 0.89 m/s, 232° | 353 W/m² | - |
| 1778013329 | 27.22° C | 33% | 1013.5 hPa | 0 mm | 1.79 m/s, 214° | 606 W/m² | - |
| 1778013026 | 27.22° C | 33% | 1013.8 hPa | 0 mm | 0.89 m/s, 217° | 541 W/m² | - |
| 1778012722 | 26.67° C | 33% | 1013.9 hPa | 0 mm | 0.89 m/s, 181° | 587 W/m² | - |
| 1778012418 | 27.22° C | 34% | 1013.7 hPa | 0 mm | 0.89 m/s, 178° | 440 W/m² | - |
| 1778012115 | 27.78° C | 31% | 1013.9 hPa | 0 mm | 1.34 m/s, 241° | 485 W/m² | - |
| 1778011813 | 27.22° C | 35% | 1014 hPa | 0 mm | 0.89 m/s, 257° | 609 W/m² | - |
| 1778011510 | 27.22° C | 34% | 1014.1 hPa | 0 mm | 1.34 m/s, 236° | 654 W/m² | - |
| 1778011207 | 27.22° C | 35% | 1014 hPa | 0 mm | 0.45 m/s, 268° | 663 W/m² | - |
| 1778010903 | 27.22° C | 34% | 1014.3 hPa | 0 mm | 2.24 m/s, 198° | 678 W/m² | - |
| 1778010601 | 27.78° C | 35% | 1014 hPa | 0 mm | 0.89 m/s, 240° | 691 W/m² | - |
| 1778010298 | 27.78° C | 34% | 1014.1 hPa | 0 mm | 1.79 m/s, 196° | 703 W/m² | - |
* Rain latest hour (hover to see other rain measurements)
** Current wind speed in m/s (hover to see current wind gust speed)